createdAt,value
2022-08-23T02:00:48.381Z,1.10
2022-08-23T02:01:08.959Z,1.40
2022-08-23T02:01:29.609Z,1.20
2022-08-23T02:01:50.229Z,1.30
2022-08-23T02:02:10.811Z,1.20
2022-08-23T02:02:31.399Z,1.20
2022-08-23T02:02:51.979Z,1.10
2022-08-23T02:03:12.571Z,1.20
2022-08-23T02:03:33.147Z,1.20
2022-08-23T02:04:04.481Z,1.40
2022-08-23T02:04:14.134Z,1.30
2022-08-23T02:04:34.709Z,1.30
2022-08-23T02:04:55.291Z,1.10
2022-08-23T02:05:17.503Z,1.10
2022-08-23T02:05:36.270Z,1.20
2022-08-23T02:05:56.857Z,1.20
2022-08-23T02:06:17.437Z,1.20
2022-08-23T02:06:38.022Z,1.10
2022-08-23T02:06:58.629Z,1.10
2022-08-23T02:07:19.027Z,1.10
2022-08-23T02:07:39.617Z,1.10
2022-08-23T02:08:01.621Z,1.20
2022-08-23T02:08:22.242Z,1.50
2022-08-23T02:08:42.823Z,1.40
2022-08-23T02:09:03.499Z,1.20
2022-08-23T02:09:25.584Z,1.20
2022-08-23T02:09:44.783Z,1.20
2022-08-23T02:10:05.366Z,1.00
2022-08-23T02:10:25.948Z,1.20
2022-08-23T02:10:46.531Z,1.10
2022-08-23T02:11:07.108Z,1.10
2022-08-23T02:11:27.693Z,1.10
2022-08-23T02:11:48.293Z,1.20
2022-08-23T02:12:08.874Z,1.20
2022-08-23T02:12:29.455Z,1.00
2022-08-23T02:12:50.042Z,0.90
2022-08-23T02:13:10.438Z,1.10
2022-08-23T02:13:31.027Z,1.30
2022-08-23T02:13:51.603Z,1.20
2022-08-23T02:14:12.186Z,1.20
2022-08-23T02:14:32.776Z,1.30
2022-08-23T02:14:53.360Z,1.10
2022-08-23T02:15:13.753Z,1.20
2022-08-23T02:15:34.334Z,1.30
2022-08-23T02:15:54.919Z,1.50
2022-08-23T02:16:15.505Z,1.30
2022-08-23T02:16:39.276Z,1.40
2022-08-23T02:17:04.477Z,1.20
2022-08-23T02:17:20.083Z,1.30
2022-08-23T02:17:40.676Z,1.40
2022-08-23T02:18:01.424Z,1.40
2022-08-23T02:18:22.137Z,1.40
2022-08-23T02:18:42.717Z,1.50
2022-08-23T02:19:03.297Z,1.20
2022-08-23T02:19:23.879Z,1.40
2022-08-23T02:19:44.460Z,1.20
2022-08-23T02:20:05.046Z,1.10
2022-08-23T02:20:25.628Z,1.00
2022-08-23T02:20:46.208Z,1.20
2022-08-23T02:21:27.354Z,1.40
2022-08-23T02:21:47.958Z,1.10
2022-08-23T02:22:08.539Z,1.20
2022-08-23T02:22:29.125Z,1.20
2022-08-23T02:22:49.703Z,1.30
2022-08-23T02:23:10.283Z,1.40
2022-08-23T02:23:30.682Z,1.30
2022-08-23T02:23:51.269Z,1.20
2022-08-23T02:24:11.847Z,1.20
2022-08-23T02:24:32.432Z,1.40
2022-08-23T02:24:53.023Z,1.40
2022-08-23T02:25:13.600Z,1.40
2022-08-23T02:25:34.183Z,1.40
2022-08-23T02:25:54.768Z,1.30
2022-08-23T02:26:15.354Z,1.20
2022-08-23T02:26:35.940Z,1.20
2022-08-23T02:26:57.142Z,1.10
2022-08-23T02:27:17.264Z,1.20
2022-08-23T02:27:37.849Z,1.20
2022-08-23T02:27:58.257Z,1.30
2022-08-23T02:28:18.835Z,1.30
2022-08-23T02:28:39.232Z,1.40
2022-08-23T02:28:59.811Z,1.20
2022-08-23T02:29:20.398Z,1.20
2022-08-23T02:29:40.799Z,1.30
2022-08-23T02:30:04.570Z,1.10
2022-08-23T02:30:25.685Z,1.20
2022-08-23T02:30:46.268Z,1.40
2022-08-23T02:31:07.279Z,1.30
2022-08-23T02:31:27.676Z,1.20
2022-08-23T02:31:48.254Z,1.30
2022-08-23T02:32:10.745Z,1.10
2022-08-23T02:32:32.408Z,1.50
2022-08-23T02:32:52.992Z,1.50
2022-08-23T02:33:14.120Z,1.30
2022-08-23T02:33:34.516Z,1.10
2022-08-23T02:33:56.728Z,1.30
2022-08-23T02:34:18.019Z,1.30
2022-08-23T02:34:38.599Z,1.40
2022-08-23T02:35:05.579Z,1.30
2022-08-23T02:35:19.590Z,1.40
2022-08-23T02:35:40.174Z,1.40
2022-08-23T02:36:00.755Z,1.40
2022-08-23T02:36:41.914Z,1.40
2022-08-23T02:37:02.556Z,1.50
2022-08-23T02:37:23.138Z,1.30
2022-08-23T02:37:43.733Z,1.30
2022-08-23T02:38:04.323Z,1.30
2022-08-23T02:38:24.902Z,1.60
2022-08-23T02:38:45.485Z,1.30
2022-08-23T02:39:06.066Z,1.10
2022-08-23T02:39:26.648Z,1.10
2022-08-23T02:39:47.061Z,1.30
2022-08-23T02:40:07.696Z,1.20
2022-08-23T02:40:28.286Z,1.20
2022-08-23T02:40:52.937Z,1.40
2022-08-23T02:41:09.261Z,1.20
2022-08-23T02:41:29.841Z,1.30
2022-08-23T02:41:50.424Z,1.50
2022-08-23T02:42:11.633Z,1.20
2022-08-23T02:42:32.563Z,1.10
2022-08-23T02:42:53.145Z,1.30
2022-08-23T02:43:13.731Z,1.10
2022-08-23T02:43:37.315Z,1.10
2022-08-23T02:43:54.722Z,1.10
2022-08-23T02:44:15.303Z,1.00
2022-08-23T02:44:35.881Z,1.50
2022-08-23T02:44:56.464Z,1.50
2022-08-23T02:45:16.852Z,1.20
2022-08-23T02:45:37.434Z,1.20
2022-08-23T02:45:58.020Z,1.30
2022-08-23T02:46:18.600Z,1.30
2022-08-23T02:46:39.178Z,1.50
2022-08-23T02:46:59.765Z,1.10
2022-08-23T02:47:20.355Z,1.30
2022-08-23T02:47:40.942Z,1.50
2022-08-23T02:48:01.731Z,1.30
2022-08-23T02:48:22.390Z,1.30
2022-08-23T02:48:42.968Z,1.40
2022-08-23T02:49:04.739Z,1.40
2022-08-23T02:49:25.323Z,1.30
2022-08-23T02:49:45.905Z,1.20
2022-08-23T02:50:06.512Z,1.30
2022-08-23T02:50:27.068Z,1.50
2022-08-23T02:50:47.648Z,1.60
2022-08-23T02:51:08.234Z,1.40
2022-08-23T02:51:28.815Z,1.40
2022-08-23T02:51:49.210Z,1.40
2022-08-23T02:52:09.793Z,1.50
2022-08-23T02:52:30.205Z,1.60
2022-08-23T02:52:50.788Z,1.50
2022-08-23T02:53:11.368Z,1.40
2022-08-23T02:53:31.946Z,1.50
2022-08-23T02:53:52.342Z,1.40
2022-08-23T02:54:12.920Z,1.60
2022-08-23T02:54:33.501Z,1.30
2022-08-23T02:54:53.897Z,1.30
2022-08-23T02:55:18.959Z,1.30
2022-08-23T02:55:39.549Z,1.40
2022-08-23T02:56:00.126Z,1.40
2022-08-23T02:56:21.807Z,1.40
2022-08-23T02:56:42.591Z,1.50
2022-08-23T02:57:03.175Z,1.50
2022-08-23T02:57:23.768Z,1.40
2022-08-23T02:57:44.163Z,1.40
2022-08-23T02:58:04.741Z,1.40
2022-08-23T02:58:25.324Z,1.40
2022-08-23T02:58:45.905Z,1.60
2022-08-23T02:59:06.304Z,1.30
2022-08-23T02:59:26.880Z,1.20
2022-08-23T02:59:47.460Z,1.30
2022-08-23T03:00:07.854Z,1.50
2022-08-23T03:00:28.433Z,1.60
2022-08-23T03:00:49.021Z,1.60
2022-08-23T03:01:09.601Z,1.60
2022-08-23T03:01:30.184Z,1.40
2022-08-23T03:01:50.765Z,1.30
2022-08-23T03:02:11.411Z,1.50
2022-08-23T03:02:32.133Z,1.40
2022-08-23T03:02:52.754Z,1.40
2022-08-23T03:03:13.336Z,1.40
2022-08-23T03:03:33.915Z,1.50
2022-08-23T03:03:58.351Z,1.40
2022-08-23T03:04:18.935Z,1.40
2022-08-23T03:04:39.517Z,1.40
2022-08-23T03:04:59.910Z,1.30
2022-08-23T03:05:20.496Z,1.30
2022-08-23T03:05:41.074Z,1.70
2022-08-23T03:06:24.647Z,1.60
2022-08-23T03:06:25.594Z,1.70
2022-08-23T03:06:46.812Z,1.50
2022-08-23T03:07:07.399Z,1.50
2022-08-23T03:07:27.994Z,1.50
2022-08-23T03:07:48.579Z,1.50
2022-08-23T03:08:09.167Z,1.30
2022-08-23T03:08:29.750Z,1.30
2022-08-23T03:08:50.336Z,1.30
2022-08-23T03:09:10.918Z,1.50
2022-08-23T03:09:31.500Z,1.70
2022-08-23T03:09:52.083Z,1.60
2022-08-23T03:10:13.659Z,1.30
2022-08-23T03:10:34.242Z,1.50
2022-08-23T03:10:54.827Z,1.60
2022-08-23T03:11:15.409Z,1.60
2022-08-23T03:11:35.995Z,1.60
2022-08-23T03:11:56.611Z,1.30
2022-08-23T03:12:17.188Z,1.40
2022-08-23T03:12:37.770Z,1.30
2022-08-23T03:12:58.359Z,1.20
2022-08-23T03:13:18.945Z,1.30
2022-08-23T03:13:39.528Z,1.30
2022-08-23T03:13:59.917Z,1.30
2022-08-23T03:14:20.312Z,1.40
2022-08-23T03:14:41.297Z,1.40
2022-08-23T03:15:01.881Z,1.60
2022-08-23T03:15:22.463Z,1.60
2022-08-23T03:15:43.050Z,1.60
2022-08-23T03:16:03.632Z,1.50
2022-08-23T03:16:24.211Z,1.50
2022-08-23T03:16:44.789Z,1.50
2022-08-23T03:17:05.376Z,1.30
2022-08-23T03:17:25.975Z,1.50
2022-08-23T03:17:46.561Z,1.60
2022-08-23T03:18:07.143Z,1.50
2022-08-23T03:18:27.727Z,1.60
2022-08-23T03:18:48.304Z,1.40
2022-08-23T03:19:08.890Z,1.40
2022-08-23T03:19:29.476Z,1.30
2022-08-23T03:19:50.069Z,1.70
2022-08-23T03:20:10.465Z,1.60
2022-08-23T03:20:31.050Z,1.50
2022-08-23T03:20:51.629Z,1.70
2022-08-23T03:21:12.217Z,1.70
2022-08-23T03:21:32.796Z,1.50
2022-08-23T03:21:53.386Z,1.40
2022-08-23T03:22:15.245Z,1.40
2022-08-23T03:22:35.839Z,1.30
2022-08-23T03:22:56.428Z,1.50
2022-08-23T03:23:17.017Z,1.60
2022-08-23T03:23:37.597Z,1.50
2022-08-23T03:23:58.180Z,1.40
2022-08-23T03:24:18.759Z,1.40
2022-08-23T03:24:39.155Z,1.40
2022-08-23T03:24:59.742Z,1.50
2022-08-23T03:25:20.323Z,1.40
2022-08-23T03:25:40.905Z,1.20
2022-08-23T03:26:01.487Z,1.30
2022-08-23T03:26:22.071Z,1.40
2022-08-23T03:26:42.650Z,1.50
2022-08-23T03:27:03.234Z,1.50
2022-08-23T03:27:23.839Z,1.40
2022-08-23T03:27:44.895Z,1.60
2022-08-23T03:28:05.637Z,1.50
2022-08-23T03:28:26.219Z,1.70
2022-08-23T03:28:46.799Z,1.60
2022-08-23T03:29:07.380Z,1.50
2022-08-23T03:29:27.965Z,1.60
2022-08-23T03:29:48.547Z,1.50
2022-08-23T03:30:09.538Z,1.70
2022-08-23T03:30:29.542Z,1.40
2022-08-23T03:30:50.121Z,1.20
2022-08-23T03:31:10.707Z,1.50
2022-08-23T03:31:31.353Z,1.50
2022-08-23T03:31:51.688Z,1.30
2022-08-23T03:32:15.521Z,1.30
2022-08-23T03:32:36.168Z,1.60
2022-08-23T03:32:56.752Z,1.50
2022-08-23T03:33:17.321Z,1.50
2022-08-23T03:33:37.907Z,1.50
2022-08-23T03:33:58.489Z,1.30
2022-08-23T03:34:19.072Z,1.30
2022-08-23T03:34:39.471Z,1.20
2022-08-23T03:35:00.054Z,1.30
2022-08-23T03:35:20.632Z,1.40
2022-08-23T03:35:41.211Z,1.60
2022-08-23T03:36:01.800Z,1.60
2022-08-23T03:36:27.923Z,1.40
2022-08-23T03:36:42.776Z,1.20
2022-08-23T03:37:03.172Z,1.40
2022-08-23T03:37:23.762Z,1.70
2022-08-23T03:37:44.351Z,1.50
2022-08-23T03:38:04.933Z,1.70
2022-08-23T03:38:25.513Z,1.40
2022-08-23T03:38:46.098Z,1.40
2022-08-23T03:39:06.682Z,1.50
2022-08-23T03:39:27.261Z,1.40
2022-08-23T03:39:47.871Z,1.50
2022-08-23T03:40:08.491Z,1.40
2022-08-23T03:40:29.090Z,1.50
2022-08-23T03:40:49.692Z,1.60
2022-08-23T03:41:10.272Z,1.60
2022-08-23T03:41:30.854Z,1.60
2022-08-23T03:41:51.438Z,1.80
2022-08-23T03:42:12.037Z,1.90
2022-08-23T03:42:32.620Z,1.50
2022-08-23T03:42:53.204Z,1.50
2022-08-23T03:43:13.790Z,1.60
2022-08-23T03:43:34.367Z,1.70
2022-08-23T03:43:54.949Z,1.60
2022-08-23T03:44:15.530Z,1.40
2022-08-23T03:44:36.118Z,1.40
2022-08-23T03:44:58.723Z,1.50
2022-08-23T03:45:17.095Z,1.50
2022-08-23T03:45:37.672Z,1.60
2022-08-23T03:45:58.260Z,1.50
2022-08-23T03:46:18.841Z,1.60
2022-08-23T03:46:39.422Z,1.40
2022-08-23T03:47:00.004Z,1.30
2022-08-23T03:47:20.398Z,1.40
2022-08-23T03:47:44.391Z,1.60
2022-08-23T03:48:04.972Z,1.50
2022-08-23T03:48:25.550Z,1.50
2022-08-23T03:48:46.135Z,1.50
2022-08-23T03:49:06.719Z,1.60
2022-08-23T03:49:27.294Z,1.60
2022-08-23T03:49:47.880Z,1.60
2022-08-23T03:50:08.464Z,1.80
2022-08-23T03:50:29.046Z,1.60
2022-08-23T03:50:49.629Z,1.50
2022-08-23T03:51:09.984Z,1.60
2022-08-23T03:51:30.564Z,1.70
2022-08-23T03:51:51.146Z,1.40
2022-08-23T03:52:11.730Z,1.60
2022-08-23T03:52:32.328Z,1.90
2022-08-23T03:52:52.914Z,1.30
2022-08-23T03:53:13.512Z,1.40
2022-08-23T03:53:34.088Z,1.60
2022-08-23T03:53:54.671Z,1.60
2022-08-23T03:54:15.254Z,1.50
2022-08-23T03:54:35.848Z,1.30
2022-08-23T03:54:56.428Z,1.50
2022-08-23T03:55:17.008Z,1.50
2022-08-23T03:55:42.257Z,1.70
2022-08-23T03:55:57.999Z,1.60
2022-08-23T03:56:18.581Z,1.70
2022-08-23T03:56:39.162Z,1.60
2022-08-23T03:56:59.754Z,1.50
2022-08-23T03:57:20.154Z,1.50
2022-08-23T03:57:40.739Z,1.60
2022-08-23T03:58:01.695Z,1.60
2022-08-23T03:58:22.372Z,1.80
2022-08-23T03:58:42.953Z,1.80
2022-08-23T03:59:03.350Z,1.70
2022-08-23T03:59:23.933Z,1.70
2022-08-23T03:59:44.517Z,1.60
2022-08-23T04:00:05.103Z,1.30
2022-08-23T04:00:25.684Z,1.70
2022-08-23T04:00:46.266Z,1.80
2022-08-23T04:01:06.664Z,1.70
2022-08-23T04:01:28.822Z,1.40
2022-08-23T04:01:49.659Z,1.70
2022-08-23T04:02:10.312Z,1.80
2022-08-23T04:02:30.887Z,1.70
2022-08-23T04:02:51.474Z,1.80
2022-08-23T04:03:12.055Z,1.60
2022-08-23T04:03:32.639Z,1.60
2022-08-23T04:03:53.217Z,1.50
2022-08-23T04:04:13.802Z,1.60
2022-08-23T04:04:34.382Z,1.60
2022-08-23T04:04:54.963Z,1.60
2022-08-23T04:05:15.544Z,1.50
2022-08-23T04:05:36.127Z,1.50
2022-08-23T04:05:56.712Z,1.80
2022-08-23T04:06:17.302Z,1.40
2022-08-23T04:06:37.885Z,1.60
2022-08-23T04:06:58.468Z,1.50
2022-08-23T04:07:19.062Z,1.60
2022-08-23T04:07:39.650Z,1.70
2022-08-23T04:08:00.421Z,1.70
2022-08-23T04:08:29.740Z,1.70
2022-08-23T04:08:41.405Z,1.70
2022-08-23T04:09:01.989Z,1.60
2022-08-23T04:09:22.577Z,1.60
2022-08-23T04:09:43.154Z,1.90
2022-08-23T04:10:05.082Z,1.60
2022-08-23T04:10:25.663Z,1.40
2022-08-23T04:10:46.249Z,1.60
2022-08-23T04:11:06.831Z,1.70
2022-08-23T04:11:27.414Z,1.40
2022-08-23T04:11:48.018Z,1.50
2022-08-23T04:12:17.317Z,1.60
2022-08-23T04:12:29.019Z,1.60
2022-08-23T04:12:49.608Z,1.70
2022-08-23T04:13:10.191Z,1.40
2022-08-23T04:13:30.778Z,1.40
2022-08-23T04:13:51.184Z,1.50
2022-08-23T04:14:11.767Z,1.50
2022-08-23T04:14:32.344Z,1.70
2022-08-23T04:14:52.928Z,1.80
2022-08-23T04:15:13.525Z,1.70
2022-08-23T04:15:34.091Z,1.80
2022-08-23T04:15:54.674Z,1.90
2022-08-23T04:16:15.256Z,1.60
2022-08-23T04:16:35.838Z,1.70
2022-08-23T04:16:56.418Z,1.70
2022-08-23T04:17:16.828Z,1.70
2022-08-23T04:17:37.416Z,1.90
2022-08-23T04:17:58.014Z,1.80
2022-08-23T04:18:18.601Z,1.50
2022-08-23T04:18:39.184Z,1.50
2022-08-23T04:18:59.767Z,1.40
2022-08-23T04:19:20.164Z,1.50
2022-08-23T04:19:42.652Z,1.40
2022-08-23T04:20:03.245Z,1.50
2022-08-23T04:20:23.826Z,1.50
2022-08-23T04:20:44.406Z,1.50
2022-08-23T04:21:04.979Z,1.50
2022-08-23T04:21:25.376Z,1.50
2022-08-23T04:21:45.958Z,1.60
2022-08-23T04:22:06.547Z,1.70
2022-08-23T04:22:27.139Z,1.60
2022-08-23T04:22:47.804Z,1.60
2022-08-23T04:23:09.063Z,1.50
2022-08-23T04:23:29.651Z,1.60
2022-08-23T04:23:50.233Z,1.70
2022-08-23T04:24:10.814Z,1.60
2022-08-23T04:24:31.400Z,1.70
2022-08-23T04:24:51.985Z,1.70
2022-08-23T04:25:33.559Z,1.50
2022-08-23T04:25:35.553Z,1.50
2022-08-23T04:25:53.364Z,1.80
2022-08-23T04:26:13.944Z,2.00
2022-08-23T04:26:34.338Z,1.70
2022-08-23T04:26:54.923Z,1.60
2022-08-23T04:27:15.322Z,1.80
2022-08-23T04:27:35.914Z,1.60
2022-08-23T04:27:56.500Z,1.50
2022-08-23T04:28:17.080Z,1.90
2022-08-23T04:28:37.669Z,1.70
2022-08-23T04:28:58.252Z,1.80
2022-08-23T04:29:20.763Z,1.70
2022-08-23T04:29:39.244Z,1.80
2022-08-23T04:29:59.846Z,1.70
2022-08-23T04:30:20.493Z,2.10
2022-08-23T04:30:41.028Z,1.70
2022-08-23T04:31:02.624Z,1.70
2022-08-23T04:31:24.005Z,1.80
2022-08-23T04:31:44.585Z,1.70
2022-08-23T04:32:11.504Z,1.90
2022-08-23T04:32:32.391Z,1.80
2022-08-23T04:32:55.537Z,1.80
2022-08-23T04:33:18.061Z,1.80
2022-08-23T04:33:40.164Z,1.80
2022-08-23T04:34:01.157Z,1.70
2022-08-23T04:34:21.738Z,1.70
2022-08-23T04:34:42.139Z,1.60
2022-08-23T04:35:02.545Z,1.60
2022-08-23T04:35:22.935Z,1.80
2022-08-23T04:35:43.516Z,1.70
2022-08-23T04:36:04.100Z,1.60
2022-08-23T04:36:24.688Z,1.50
2022-08-23T04:36:51.827Z,1.60
2022-08-23T04:37:07.429Z,1.60
2022-08-23T04:37:30.031Z,1.60
2022-08-23T04:37:50.639Z,1.80
2022-08-23T04:38:24.371Z,1.70
2022-08-23T04:38:31.618Z,1.40
2022-08-23T04:38:52.197Z,1.60
2022-08-23T04:39:12.775Z,1.80
2022-08-23T04:39:33.357Z,1.70
2022-08-23T04:39:55.457Z,1.80
2022-08-23T04:40:16.123Z,1.80
2022-08-23T04:40:36.679Z,1.50
2022-08-23T04:40:57.261Z,1.60
2022-08-23T04:41:17.846Z,1.50
2022-08-23T04:41:38.432Z,1.80
2022-08-23T04:41:58.827Z,2.00
2022-08-23T04:42:19.412Z,1.70
2022-08-23T04:42:42.338Z,1.70
2022-08-23T04:43:02.917Z,1.50
2022-08-23T04:43:23.308Z,1.50
2022-08-23T04:43:43.897Z,1.80
2022-08-23T04:44:04.479Z,1.90
2022-08-23T04:44:25.058Z,1.70
2022-08-23T04:44:45.642Z,1.80
2022-08-23T04:45:06.224Z,1.70
2022-08-23T04:45:26.810Z,1.80
2022-08-23T04:45:47.394Z,1.80
2022-08-23T04:46:07.978Z,1.70
2022-08-23T04:46:28.559Z,1.60
2022-08-23T04:46:49.145Z,1.70
2022-08-23T04:47:09.723Z,1.90
2022-08-23T04:47:30.132Z,1.70
2022-08-23T04:47:50.711Z,1.80
2022-08-23T04:48:12.088Z,1.80
2022-08-23T04:48:32.779Z,1.70
2022-08-23T04:48:53.363Z,1.80
2022-08-23T04:49:13.946Z,1.80
2022-08-23T04:49:34.531Z,1.80
2022-08-23T04:49:55.110Z,1.70
2022-08-23T04:50:15.692Z,1.70
2022-08-23T04:50:36.270Z,1.80
2022-08-23T04:50:56.855Z,1.60
2022-08-23T04:51:17.437Z,1.80
2022-08-23T04:51:38.017Z,1.70
2022-08-23T04:51:58.821Z,1.70
2022-08-23T04:52:19.790Z,1.80
2022-08-23T04:52:39.818Z,1.80
2022-08-23T04:53:00.214Z,1.80
2022-08-23T04:53:20.860Z,1.80
2022-08-23T04:53:41.432Z,1.70
2022-08-23T04:54:01.826Z,1.70
2022-08-23T04:54:22.810Z,1.80
2022-08-23T04:54:43.386Z,1.70
2022-08-23T04:55:03.967Z,1.80
2022-08-23T04:55:24.546Z,1.70
2022-08-23T04:55:45.126Z,1.90
2022-08-23T04:56:05.703Z,1.90
2022-08-23T04:56:26.107Z,1.80
2022-08-23T04:56:51.849Z,2.00
2022-08-23T04:57:07.094Z,1.60
2022-08-23T04:57:27.677Z,1.70
2022-08-23T04:57:48.280Z,1.90
2022-08-23T04:58:08.674Z,2.10
2022-08-23T04:58:29.257Z,2.00
2022-08-23T04:58:49.654Z,1.90
2022-08-23T04:59:10.240Z,1.70
2022-08-23T04:59:33.732Z,1.70
2022-08-23T04:59:54.316Z,1.70
2022-08-23T05:00:14.895Z,1.70
2022-08-23T05:00:35.550Z,1.70
2022-08-23T05:00:56.121Z,1.80
2022-08-23T05:01:16.725Z,1.80
2022-08-23T05:01:37.278Z,2.00
2022-08-23T05:01:58.126Z,1.70
2022-08-23T05:02:18.705Z,1.70
2022-08-23T05:02:39.300Z,1.80
2022-08-23T05:02:59.881Z,1.70
2022-08-23T05:03:20.463Z,1.50
2022-08-23T05:03:41.046Z,1.70
2022-08-23T05:04:01.626Z,1.80
2022-08-23T05:04:22.206Z,1.70
2022-08-23T05:04:42.606Z,1.90
2022-08-23T05:05:03.189Z,1.60
2022-08-23T05:05:23.583Z,1.70
2022-08-23T05:05:44.164Z,1.80
2022-08-23T05:06:04.747Z,1.70
2022-08-23T05:06:25.334Z,1.70
2022-08-23T05:06:45.919Z,1.60
2022-08-23T05:07:06.496Z,1.70
2022-08-23T05:07:31.940Z,1.90
2022-08-23T05:07:47.501Z,1.60
2022-08-23T05:08:08.085Z,1.90
2022-08-23T05:08:28.675Z,2.00
2022-08-23T05:08:49.259Z,1.60
2022-08-23T05:09:09.654Z,1.60
2022-08-23T05:09:30.049Z,1.60
2022-08-23T05:09:50.641Z,1.70
2022-08-23T05:10:11.219Z,1.70
2022-08-23T05:10:31.802Z,1.70
2022-08-23T05:10:52.381Z,1.70
2022-08-23T05:11:12.777Z,1.70
2022-08-23T05:11:33.367Z,1.70
2022-08-23T05:11:53.940Z,1.60
2022-08-23T05:12:14.522Z,1.90
2022-08-23T05:12:35.124Z,1.70
2022-08-23T05:12:55.517Z,1.80
2022-08-23T05:13:16.105Z,2.00
2022-08-23T05:13:36.686Z,1.70
2022-08-23T05:13:57.271Z,1.80
2022-08-23T05:14:17.851Z,1.80
2022-08-23T05:14:38.437Z,1.80
2022-08-23T05:14:59.015Z,1.70
2022-08-23T05:15:19.413Z,1.60
2022-08-23T05:15:40.005Z,1.80
2022-08-23T05:16:00.586Z,1.60
2022-08-23T05:16:21.167Z,1.90
2022-08-23T05:16:41.747Z,1.70
2022-08-23T05:17:02.327Z,1.80
2022-08-23T05:17:22.910Z,1.70
2022-08-23T05:17:43.316Z,1.80
2022-08-23T05:18:03.902Z,1.90
2022-08-23T05:18:24.487Z,2.00
2022-08-23T05:18:45.355Z,1.80
2022-08-23T05:19:05.938Z,1.80
2022-08-23T05:19:26.520Z,1.70
2022-08-23T05:19:47.381Z,1.80
2022-08-23T05:20:07.928Z,1.70
2022-08-23T05:20:28.512Z,1.60
2022-08-23T05:20:49.088Z,1.80
2022-08-23T05:21:09.665Z,1.60
2022-08-23T05:21:30.253Z,1.60
2022-08-23T05:21:55.068Z,1.80
2022-08-23T05:22:12.148Z,1.60
2022-08-23T05:22:33.272Z,1.80
2022-08-23T05:22:53.872Z,1.70
2022-08-23T05:23:14.456Z,1.70
2022-08-23T05:23:35.034Z,1.60
2022-08-23T05:23:55.719Z,1.50
2022-08-23T05:24:16.306Z,1.50
2022-08-23T05:24:36.888Z,1.50
2022-08-23T05:24:57.468Z,1.50
2022-08-23T05:25:18.051Z,1.70
2022-08-23T05:25:38.628Z,1.80
2022-08-23T05:25:59.207Z,1.90
2022-08-23T05:26:19.799Z,1.80
2022-08-23T05:26:40.420Z,1.60
2022-08-23T05:27:00.966Z,1.70
2022-08-23T05:27:21.808Z,1.50
2022-08-23T05:27:42.410Z,1.70
2022-08-23T05:28:02.805Z,1.70
2022-08-23T05:28:23.394Z,2.00
2022-08-23T05:28:43.974Z,1.60
2022-08-23T05:29:04.559Z,1.60
2022-08-23T05:29:25.143Z,1.70
2022-08-23T05:29:47.993Z,1.70
2022-08-23T05:30:08.583Z,1.70
2022-08-23T05:30:28.987Z,1.50
2022-08-23T05:30:56.461Z,1.80
2022-08-23T05:31:11.896Z,2.10
2022-08-23T05:31:32.495Z,1.90
2022-08-23T05:31:53.076Z,1.70
2022-08-23T05:32:13.661Z,1.70
2022-08-23T05:32:34.243Z,1.60
2022-08-23T05:32:54.837Z,1.80
2022-08-23T05:33:15.601Z,1.90
2022-08-23T05:33:36.186Z,1.80
2022-08-23T05:33:56.799Z,1.90
2022-08-23T05:34:17.388Z,1.70
2022-08-23T05:34:37.792Z,1.70
2022-08-23T05:34:58.378Z,1.60
2022-08-23T05:35:18.955Z,1.70
2022-08-23T05:35:39.539Z,2.00
2022-08-23T05:36:00.141Z,1.60
2022-08-23T05:36:20.720Z,1.70
2022-08-23T05:36:48.370Z,1.80
2022-08-23T05:37:01.700Z,2.00
2022-08-23T05:37:22.283Z,1.80
2022-08-23T05:37:42.865Z,1.90
2022-08-23T05:38:03.467Z,1.80
2022-08-23T05:38:24.051Z,1.80
2022-08-23T05:38:44.629Z,1.90
2022-08-23T05:39:05.213Z,1.80
2022-08-23T05:39:36.150Z,1.80
2022-08-23T05:39:46.252Z,1.70
2022-08-23T05:40:06.899Z,1.90
2022-08-23T05:40:27.447Z,1.70
2022-08-23T05:40:48.030Z,1.50
2022-08-23T05:41:08.435Z,1.80
2022-08-23T05:41:38.034Z,1.60
2022-08-23T05:41:49.422Z,1.70
2022-08-23T05:42:10.008Z,1.70
2022-08-23T05:42:30.593Z,1.80
2022-08-23T05:42:51.172Z,1.80
2022-08-23T05:43:11.771Z,1.80
2022-08-23T05:43:32.353Z,1.50
2022-08-23T05:43:52.931Z,1.70
2022-08-23T05:44:13.516Z,1.90
2022-08-23T05:44:34.519Z,1.70
2022-08-23T05:44:57.302Z,1.70
2022-08-23T05:45:21.810Z,1.90
2022-08-23T05:45:42.514Z,1.70
2022-08-23T05:46:04.094Z,1.90
2022-08-23T05:46:28.470Z,1.80
2022-08-23T05:46:49.139Z,1.70
2022-08-23T05:47:11.220Z,1.80
2022-08-23T05:47:33.777Z,1.80
2022-08-23T05:47:55.848Z,1.90
2022-08-23T05:48:14.918Z,1.60
2022-08-23T05:48:38.861Z,1.60
2022-08-23T05:48:59.258Z,1.90
2022-08-23T05:49:21.180Z,1.90
2022-08-23T05:49:41.853Z,1.60
2022-08-23T05:50:02.437Z,1.60
2022-08-23T05:50:23.017Z,1.70
2022-08-23T05:50:43.598Z,1.90
2022-08-23T05:51:03.993Z,1.80
2022-08-23T05:51:24.579Z,1.60
2022-08-23T05:51:45.167Z,1.60
2022-08-23T05:52:05.573Z,1.90
2022-08-23T05:52:26.157Z,1.90
2022-08-23T05:52:50.809Z,1.60
2022-08-23T05:53:11.681Z,1.50
2022-08-23T05:53:32.259Z,1.70
2022-08-23T05:53:52.843Z,1.70
2022-08-23T05:54:13.421Z,1.80
2022-08-23T05:54:33.821Z,2.00
2022-08-23T05:54:54.397Z,1.70
2022-08-23T05:55:14.980Z,1.60
2022-08-23T05:55:35.577Z,1.70
2022-08-23T05:55:56.147Z,1.70
2022-08-23T05:56:16.741Z,1.60
2022-08-23T05:56:37.142Z,1.70
2022-08-23T05:56:57.728Z,1.70
2022-08-23T05:57:18.322Z,1.50
2022-08-23T05:57:38.905Z,1.60
2022-08-23T05:57:59.620Z,1.50
2022-08-23T05:58:20.231Z,1.80
2022-08-23T05:58:40.625Z,1.90
2022-08-23T05:59:01.205Z,1.60
2022-08-23T05:59:21.812Z,1.80
2022-08-23T05:59:42.400Z,1.60
2022-08-23T06:00:03.003Z,1.50
2022-08-23T06:00:23.596Z,1.70
2022-08-23T06:00:44.067Z,1.80
2022-08-23T06:01:04.736Z,1.50
2022-08-23T06:01:25.351Z,1.60
2022-08-23T06:01:45.920Z,1.60
2022-08-23T06:02:10.777Z,1.60
2022-08-23T06:02:31.354Z,1.90
2022-08-23T06:02:51.955Z,1.70
2022-08-23T06:03:12.534Z,1.60
2022-08-23T06:03:33.121Z,1.70
2022-08-23T06:03:53.701Z,1.70
2022-08-23T06:04:14.282Z,1.70
2022-08-23T06:04:34.862Z,1.70
2022-08-23T06:04:57.402Z,1.60
2022-08-23T06:05:18.178Z,1.80
2022-08-23T06:05:38.761Z,1.70
2022-08-23T06:05:59.338Z,1.50
2022-08-23T06:06:19.925Z,1.60
2022-08-23T06:06:40.506Z,1.70
2022-08-23T06:07:01.095Z,1.60
2022-08-23T06:07:21.495Z,1.60
2022-08-23T06:07:42.081Z,1.80
2022-08-23T06:08:02.979Z,1.80
2022-08-23T06:08:23.676Z,1.70
2022-08-23T06:08:44.260Z,1.50
2022-08-23T06:09:04.842Z,1.60
2022-08-23T06:09:25.419Z,1.60
2022-08-23T06:09:46.008Z,1.70
2022-08-23T06:10:06.589Z,1.60
2022-08-23T06:10:27.181Z,2.10
2022-08-23T06:10:47.753Z,1.60
2022-08-23T06:11:08.339Z,1.60
2022-08-23T06:11:28.917Z,1.50
2022-08-23T06:11:49.497Z,1.60
2022-08-23T06:12:10.078Z,1.60
2022-08-23T06:12:30.662Z,1.70
2022-08-23T06:12:51.244Z,1.40
2022-08-23T06:13:11.844Z,1.50
2022-08-23T06:13:32.427Z,1.80
2022-08-23T06:13:53.065Z,1.70
2022-08-23T06:14:13.655Z,1.60
2022-08-23T06:14:34.228Z,1.60
2022-08-23T06:14:54.599Z,1.60
2022-08-23T06:15:15.178Z,1.70
2022-08-23T06:15:35.754Z,1.60
2022-08-23T06:15:56.160Z,1.50
2022-08-23T06:16:16.744Z,1.70
2022-08-23T06:16:37.329Z,1.60
2022-08-23T06:16:57.908Z,1.50
2022-08-23T06:17:18.491Z,1.50
2022-08-23T06:17:39.074Z,1.70
2022-08-23T06:17:59.970Z,1.50
2022-08-23T06:18:20.616Z,1.70
2022-08-23T06:18:41.191Z,1.60
2022-08-23T06:19:01.784Z,1.70
2022-08-23T06:19:22.183Z,1.70
2022-08-23T06:19:42.769Z,1.50
2022-08-23T06:20:03.444Z,1.60
2022-08-23T06:20:24.103Z,1.70
2022-08-23T06:20:44.738Z,1.50
2022-08-23T06:21:05.284Z,1.70
2022-08-23T06:21:25.872Z,1.70
2022-08-23T06:21:46.450Z,1.60
2022-08-23T06:22:07.041Z,1.60
2022-08-23T06:22:27.621Z,1.60
2022-08-23T06:22:48.206Z,1.60
2022-08-23T06:23:08.805Z,1.50
2022-08-23T06:23:32.590Z,1.70
2022-08-23T06:23:53.173Z,1.50
2022-08-23T06:24:13.756Z,1.70
2022-08-23T06:24:34.340Z,1.80
2022-08-23T06:24:54.920Z,1.50
2022-08-23T06:25:15.508Z,1.40
2022-08-23T06:25:36.092Z,1.40
2022-08-23T06:25:56.675Z,1.50
2022-08-23T06:26:17.255Z,1.50
2022-08-23T06:26:37.840Z,1.50
2022-08-23T06:26:58.434Z,1.70
2022-08-23T06:27:19.012Z,1.60
2022-08-23T06:27:39.612Z,1.60
2022-08-23T06:28:00.439Z,1.50
2022-08-23T06:28:25.559Z,1.50
2022-08-23T06:28:50.193Z,1.50
2022-08-23T06:29:06.690Z,1.70
2022-08-23T06:29:27.306Z,1.90
2022-08-23T06:29:47.857Z,1.70
2022-08-23T06:30:08.439Z,1.60
2022-08-23T06:30:28.698Z,1.50
2022-08-23T06:30:49.317Z,1.50
2022-08-23T06:31:09.927Z,1.70
2022-08-23T06:31:30.504Z,1.70
2022-08-23T06:31:54.619Z,1.70
2022-08-23T06:32:15.284Z,1.70
2022-08-23T06:32:35.882Z,1.60
2022-08-23T06:32:56.521Z,1.70
2022-08-23T06:33:17.114Z,1.60
2022-08-23T06:33:37.727Z,1.90
2022-08-23T06:33:58.519Z,1.70
2022-08-23T06:34:19.119Z,1.70
2022-08-23T06:34:39.678Z,1.60
2022-08-23T06:35:33.115Z,1.70
2022-08-23T06:35:37.791Z,1.60
2022-08-23T06:35:41.926Z,1.60
2022-08-23T06:36:02.510Z,1.70
2022-08-23T06:36:23.096Z,1.70
2022-08-23T06:36:43.680Z,1.70
2022-08-23T06:37:04.259Z,1.70